Latest Weather Observations for Kurnell

IDN60901

Issued at 1:51 pm EDT Monday 23 October 2017 (issued every 10 minutes, with the page automatically refreshed every 10 minutes)

About weather observations | Map of Sydney area stations | Latest observations for Sydney area | Other Formats
Station Details ID: 066043 Name: KURNELL AWS Lat: -34.00 Lon: 151.21 Height: 4.0 m
Data from the previous 72 hours. | See also: Recent months for locations in New South Wales
Date/Time
EDT
Temp
°C
App
Temp
°C
Dew
Point
°C
Rel
Hum
%
Delta-T
°C
Wind Press
QNH
hPa
Press
MSL
hPa
Rain since
9am
mm
Dir  Spd
km/h
Gust
km/h
Spd
kts
Gust
kts
23/01:30pm - - - - - SSE 20 30 11 16 - - -
23/01:00pm - - - - - S 24 33 13 18 - - -
23/12:30pm - - - - - S 24 35 13 19 - - -
23/12:00pm - - - - - SSW 24 33 13 18 - - -
23/11:30am - - - - - SSW 28 33 15 18 - - -
23/11:00am - - - - - SSW 26 33 14 18 - - -
23/10:30am - - - - - SSW 26 33 14 18 - - -
23/10:00am - - - - - SSW 24 32 13 17 - - -
23/09:30am - - - - - SW 26 33 14 18 - - -
23/09:00am - - - - - SSW 24 33 13 18 - - -
23/08:30am - - - - - SSW 22 33 12 18 - - -
23/08:00am - - - - - SSW 20 28 11 15 - - -
23/07:30am - - - - - SW 17 24 9 13 - - -
23/07:00am - - - - - W 13 15 7 8 - - -
23/06:30am - - - - - W 13 17 7 9 - - -
23/06:00am - - - - - WNW 15 17 8 9 - - -
23/05:30am - - - - - W 13 17 7 9 - - -
23/05:00am - - - - - W 15 17 8 9 - - -
23/04:30am - - - - - W 13 17 7 9 - - -
23/04:00am - - - - - SW 11 15 6 8 - - -
23/03:30am - - - - - SW 13 15 7 8 - - -
23/03:00am - - - - - SW 13 15 7 8 - - -
23/02:30am - - - - - SW 17 20 9 11 - - -
23/02:00am - - - - - SW 17 20 9 11 - - -
23/01:30am - - - - - WSW 15 19 8 10 - - -
23/01:00am - - - - - SW 15 19 8 10 - - -
23/12:30am - - - - - SSW 9 13 5 7 - - -
23/12:00am - - - - - S 9 11 5 6 - - -
 
Date/Time
EDT
Temp
°C
App
Temp
°C
Dew
Point
°C
Rel
Hum
%
Delta-T
°C
Wind Press
QNH
hPa
Press
MSL
hPa
Rain since
9am
mm
Dir  Spd
km/h
Gust
km/h
Spd
kts
Gust
kts
22/11:30pm - - - - - S 7 9 4 5 - - -
22/11:00pm - - - - - WSW 2 7 1 4 - - -
22/10:30pm - - - - - SW 6 9 3 5 - - -
22/10:00pm - - - - - SW 7 9 4 5 - - -
22/09:30pm - - - - - W 9 9 5 5 - - -
22/09:00pm - - - - - WSW 6 15 3 8 - - -
22/08:30pm - - - - - CALM 0 0 0 0 - - -
22/08:00pm - - - - - SSE 7 11 4 6 - - -
22/07:30pm - - - - - SSE 15 19 8 10 - - -
22/07:00pm - - - - - ESE 13 19 7 10 - - -
22/06:30pm - - - - - SE 20 26 11 14 - - -
22/06:00pm - - - - - ESE 17 26 9 14 - - -
22/05:30pm - - - - - ESE 13 17 7 9 - - -
22/05:00pm - - - - - E 17 22 9 12 - - -
22/04:30pm - - - - - ESE 17 22 9 12 - - -
22/04:00pm - - - - - SE 22 32 12 17 - - -
22/03:30pm - - - - - SSE 19 28 10 15 - - -
22/03:00pm - - - - - SE 20 28 11 15 - - -
22/02:30pm - - - - - ESE 22 28 12 15 - - -
22/02:00pm - - - - - E 22 30 12 16 - - -
22/01:30pm - - - - - ESE 22 28 12 15 - - -
22/01:00pm - - - - - ESE 20 26 11 14 - - -
22/12:30pm - - - - - ESE 19 28 10 15 - - -
22/12:00pm - - - - - E 15 20 8 11 - - -
22/11:30am - - - - - E 13 19 7 10 - - -
22/11:00am - - - - - ENE 9 13 5 7 - - -
22/10:30am - - - - - ENE 9 11 5 6 - - -
22/10:00am - - - - - NNE 4 9 2 5 - - -
22/09:30am - - - - - WNW 4 7 2 4 - - -
22/09:00am - - - - - N 7 11 4 6 - - -
22/08:30am - - - - - CALM 0 4 0 2 - - -
22/08:00am - - - - - W 7 9 4 5 - - -
22/07:30am - - - - - W 15 17 8 9 - - -
22/07:00am - - - - - WSW 11 11 6 6 - - -
22/06:30am - - - - - WSW 9 9 5 5 - - -
22/06:00am - - - - - S 7 9 4 5 - - -
22/05:30am - - - - - WSW 6 11 3 6 - - -
22/05:00am - - - - - WSW 7 11 4 6 - - -
22/04:30am - - - - - WSW 2 9 1 5 - - -
22/04:00am - - - - - CALM 0 0 0 0 - - -
22/03:30am - - - - - S 9 13 5 7 - - -
22/03:00am - - - - - S 15 19 8 10 - - -
22/02:30am - - - - - S 9 13 5 7 - - -
22/02:00am - - - - - SSW 11 15 6 8 - - -
22/01:30am - - - - - SW 6 7 3 4 - - -
22/01:00am - - - - - SW 7 9 4 5 - - -
22/12:30am - - - - - SW 6 7 3 4 - - -
22/12:00am - - - - - SW 9 11 5 6 - - -
 
Date/Time
EDT
Temp
°C
App
Temp
°C
Dew
Point
°C
Rel
Hum
%
Delta-T
°C
Wind Press
QNH
hPa
Press
MSL
hPa
Rain since
9am
mm
Dir  Spd
km/h
Gust
km/h
Spd
kts
Gust
kts
21/11:30pm - - - - - SSE 6 9 3 5 - - -
21/11:00pm - - - - - CALM 0 0 0 0 - - -
21/10:30pm - - - - - CALM 0 0 0 0 - - -
21/10:00pm - - - - - SE 6 9 3 5 - - -
21/09:30pm - - - - - SE 7 9 4 5 - - -
21/09:00pm - - - - - SE 9 11 5 6 - - -
21/08:30pm - - - - - SE 11 15 6 8 - - -
21/08:00pm - - - - - SE 13 17 7 9 - - -
21/07:30pm - - - - - SE 13 17 7 9 - - -
21/07:00pm - - - - - SE 15 19 8 10 - - -
21/06:30pm - - - - - SE 15 22 8 12 - - -
21/06:00pm - - - - - SSE 20 28 11 15 - - -
21/05:30pm - - - - - SSE 22 32 12 17 - - -
21/05:00pm - - - - - S 26 35 14 19 - - -
21/04:30pm - - - - - S 28 37 15 20 - - -
21/04:00pm - - - - - S 28 39 15 21 - - -
21/03:30pm - - - - - S 30 39 16 21 - - -
21/03:00pm - - - - - S 33 46 18 25 - - -
21/02:30pm - - - - - S 33 43 18 23 - - -
21/02:00pm - - - - - SSW 33 44 18 24 - - -
21/01:30pm - - - - - SSW 37 50 20 27 - - -
21/01:00pm - - - - - SSW 37 50 20 27 - - -
21/12:30pm - - - - - SSW 35 48 19 26 - - -
21/12:26pm - - - - - SSW 35 54 19 29 - - -
21/12:00pm - - - - - SSW 35 48 19 26 - - -
21/11:30am - - - - - SSW 35 46 19 25 - - -
21/11:00am - - - - - SSW 35 50 19 27 - - -
21/10:30am - - - - - SSW 37 50 20 27 - - -
21/10:00am - - - - - SW 37 50 20 27 - - -
21/09:30am - - - - - SSW 35 44 19 24 - - -
21/09:00am - - - - - SSW 32 39 17 21 - - -
21/08:30am - - - - - SSW 30 39 16 21 - - -
21/08:00am - - - - - SW 32 39 17 21 - - -
21/07:30am - - - - - SW 26 35 14 19 - - -
21/07:00am - - - - - SW 20 28 11 15 - - -
21/06:30am - - - - - SSW 22 35 12 19 - - -
21/06:00am - - - - - S 26 37 14 20 - - -
21/05:30am - - - - - SSW 32 43 17 23 - - -
21/05:00am - - - - - S 28 39 15 21 - - -
21/04:30am - - - - - SSW 33 46 18 25 - - -
21/04:00am - - - - - SSW 28 37 15 20 - - -
21/03:30am - - - - - SSW 32 41 17 22 - - -
21/03:00am - - - - - S 32 43 17 23 - - -
21/02:32am - - - - - S 35 56 19 30 - - -
21/02:30am - - - - - S 35 50 19 27 - - -
21/02:00am - - - - - S 30 41 16 22 - - -
21/01:36am - - - - - S 33 52 18 28 - - -
21/01:30am - - - - - S 33 48 18 26 - - -
21/01:00am - - - - - S 33 43 18 23 - - -
21/12:50am - - - - - S 28 48 15 26 - - -
21/12:30am - - - - - S 32 41 17 22 - - -
21/12:00am - - - - - S 32 46 17 25 - - -
 
Date/Time
EDT
Temp
°C
App
Temp
°C
Dew
Point
°C
Rel
Hum
%
Delta-T
°C
Wind Press
QNH
hPa
Press
MSL
hPa
Rain since
9am
mm
Dir  Spd
km/h
Gust
km/h
Spd
kts
Gust
kts
20/11:30pm - - - - - S 32 41 17 22 - - -
20/11:00pm - - - - - S 33 44 18 24 - - -
20/10:30pm - - - - - S 32 43 17 23 - - -
20/10:00pm - - - - - S 32 44 17 24 - - -
20/09:30pm - - - - - S 32 44 17 24 - - -
20/09:00pm - - - - - S 37 52 20 28 - - -
20/08:30pm - - - - - S 30 44 16 24 - - -
20/08:07pm - - - - - S 32 50 17 27 - - -
20/08:00pm - - - - - S 35 50 19 27 - - -
20/07:36pm - - - - - S 33 52 18 28 - - -
20/07:30pm - - - - - S 35 52 19 28 - - -
20/07:00pm - - - - - S 32 54 17 29 - - -
20/06:30pm - - - - - S 32 41 17 22 - - -
20/06:00pm - - - - - S 30 41 16 22 - - -
20/05:30pm - - - - - S 33 48 18 26 - - -
20/05:00pm - - - - - S 30 50 16 27 - - -
20/04:30pm - - - - - S 28 35 15 19 - - -
20/04:00pm - - - - - S 32 41 17 22 - - -
20/03:44pm - - - - - S 35 54 19 29 - - -
20/03:30pm - - - - - S 37 52 20 28 - - -
20/03:14pm - - - - - S 37 56 20 30 - - -
20/03:00pm - - - - - S 41 56 22 30 - - -
20/02:46pm - - - - - S 39 59 21 32 - - -
20/02:30pm - - - - - S 37 52 20 28 - - -
20/02:07pm - - - - - S 44 63 24 34 - - -
20/02:00pm - - - - - S 43 59 23 32 - - -

Latest Capital City Observations: Canberra | Sydney | Melbourne | Brisbane | Adelaide | Perth | Hobart | Darwin

Other Formats:

Comma delimited format used in spreadsheet applications
http://www.bom.gov.au/fwo/IDN60901/IDN60901.95756.axf

JavaScript Object Notation format (JSON) in row-major order
http://www.bom.gov.au/fwo/IDN60901/IDN60901.95756.json